Gatlinburg, TN

7:28 AM EDT on August 24, 2016 (GMT -0400)
Gatlinburg | | Change Station

Elev 1476 ft 35.71 °N, 83.51 °W | Updated 26 seconds ago

Overcast
Overcast
67.8 °F
Feels Like 67.8 °F
N
0.0
Wind Variable Wind from South
Gusts 0.0 mph

Today
High -- | Low -- °F
--% Chance of Precip.
Yesterday
High -- | Low -- °F
Precip. -- in
Pressure 30.22 in
Visibility 10.0 miles
Clouds Few 5000 ft
Overcast 6000 ft
Dew Point 67 °F
Humidity 96%
Rainfall 0.00 in
Snow Depth Not available.
7:00 AM 8:11 PM
Waning Gibbous, 58% visible
METAR KTYS 241053Z 00000KT 10SM FEW050 OVC060 21/19 A3025 RMK AO2 SLP232 T02110194
Pressure 30.22 in
Visibility 10.0 miles
Clouds Few 5000 ft
Overcast 6000 ft
Dew Point 67 °F
Humidity 96%
Rainfall 0.00 in
Snow Depth Not available.
7:00 AM 8:11 PM
Waning Gibbous, 58% visible
METAR KTYS 241053Z 00000KT 10SM FEW050 OVC060 21/19 A3025 RMK AO2 SLP232 T02110194

10-Day Weather Forecast

Almanac

Astronomy

Aug. 24, 2016 Rise Set
Actual Time
Civil Twilight
Nautical Twilight
Astronomical Twilight
Moon
Length of Visible Light
Length of Day
Tomorrow will be .
, % of the Moon is Illuminated

Today's Extremes

State Highs State Lows

Community

WunderPhotos

Upload Photos

1,934,565 photos uploaded!

WunderBlog® & News

Nearby

Air Quality

  Air Quality AQ Index Pollutant
Not available.

Snow Depth

Station Depth Elevation

Earthquake Activity

City Distance Mag. Time & Date
Minimum magnitude displayed is 2.5.

Coastal Water Temperatures

Place Temperature

Stations

Nearby Weather Stations

Station Location Temp. Windchill Dew Point Humidity Wind Precip. Elev Updated Type
                   

Watches & Warnings

There are currently no watches in effect.